Time;durP1;ratioP1;P1;durP2;ratioP2;P2;SDS_P1;SDS_P2;PMS_P1;PMS_P2;Temp;Humidity;BMP_temperature;BMP_pressure;BME280_temperature;BME280_humidity;BME280_pressure;Samples;Min_cycle;Max_cycle;Signal;HPM_P1;HPM_P2
2023/08/27 00:01:11;;;;;;;3.85;1.73;;;;;;;;;;5003704;28;20032;-86
2023/08/27 00:03:36;;;;;;;3.50;1.63;;;;;;;;;;5007425;28;20489;-86
2023/08/27 00:06:02;;;;;;;3.92;1.75;;;;;;;;;;5006489;28;20062;-86
2023/08/27 00:08:28;;;;;;;2.65;1.60;;;;;;;;;;5011872;28;20120;-85
2023/08/27 00:10:58;;;;;;;2.53;1.73;;;;;;;;;;5005374;28;20050;-86
2023/08/27 00:13:23;;;;;;;2.83;1.75;;;;;;;;;;5008690;28;20038;-80
2023/08/27 00:15:49;;;;;;;3.28;1.70;;;;;;;;;;5011442;28;20026;-79
2023/08/27 00:18:14;;;;;;;2.65;1.50;;;;;;;;;;5018756;28;20049;-81
2023/08/27 00:20:41;;;;;;;2.85;1.60;;;;;;;;;;5006558;28;20088;-79
2023/08/27 00:23:08;;;;;;;2.42;1.52;;;;;;;;;;5013173;28;20108;-87
2023/08/27 00:25:34;;;;;;;3.25;1.80;;;;;;;;;;5005076;28;20566;-86
2023/08/27 00:27:59;;;;;;;3.40;1.50;;;;;;;;;;5008202;28;20048;-86
2023/08/27 00:30:24;;;;;;;2.42;1.45;;;;;;;;;;5010067;28;20021;-87
2023/08/27 00:32:50;;;;;;;4.85;1.48;;;;;;;;;;5015068;28;20552;-85
2023/08/27 00:35:15;;;;;;;1.90;1.42;;;;;;;;;;5017079;28;20033;-80
2023/08/27 00:37:40;;;;;;;4.28;1.60;;;;;;;;;;5017788;28;20033;-83
2023/08/27 00:40:07;;;;;;;2.42;1.30;;;;;;;;;;5009587;28;20029;-86
2023/08/27 00:42:32;;;;;;;2.50;1.30;;;;;;;;;;5013178;28;20060;-86
2023/08/27 00:44:57;;;;;;;2.70;1.45;;;;;;;;;;5017860;28;20038;-86
2023/08/27 00:47:23;;;;;;;3.40;1.48;;;;;;;;;;5016764;28;20548;-81
2023/08/27 00:49:49;;;;;;;2.50;1.60;;;;;;;;;;5009838;28;20029;-87
2023/08/27 00:52:16;;;;;;;2.58;1.30;;;;;;;;;;5015871;28;20124;-87
2023/08/27 00:54:42;;;;;;;2.15;1.30;;;;;;;;;;5009778;28;20035;-87
2023/08/27 00:57:08;;;;;;;1.90;1.30;;;;;;;;;;5016965;28;20048;-86
2023/08/27 00:59:34;;;;;;;1.88;1.20;;;;;;;;;;5017301;28;20069;-86
2023/08/27 01:02:00;;;;;;;2.47;1.27;;;;;;;;;;5007589;28;20096;-83
2023/08/27 01:04:26;;;;;;;1.90;1.25;;;;;;;;;;5013644;28;20057;-87
2023/08/27 01:06:51;;;;;;;3.03;1.58;;;;;;;;;;5012039;28;20174;-85
2023/08/27 01:09:33;;;;;;;2.72;1.40;;;;;;;;;;5010483;28;20109;-87
2023/08/27 01:12:21;;;;;;;3.40;1.55;;;;;;;;;;5005547;28;20507;-87
2023/08/27 01:14:48;;;;;;;2.05;1.25;;;;;;;;;;5009898;28;20100;-76
2023/08/27 01:17:16;;;;;;;2.38;1.50;;;;;;;;;;5010079;28;20051;-76
2023/08/27 01:19:42;;;;;;;2.40;1.50;;;;;;;;;;5011516;28;20022;-76
2023/08/27 01:22:07;;;;;;;5.05;1.60;;;;;;;;;;5005008;28;20044;-86
2023/08/27 01:24:33;;;;;;;3.47;1.40;;;;;;;;;;5003152;28;20544;-86
2023/08/27 01:27:13;;;;;;;3.30;1.80;;;;;;;;;;5003503;28;20087;-86
2023/08/27 01:29:57;;;;;;;2.20;1.45;;;;;;;;;;5019206;28;20026;-86
2023/08/27 01:32:47;;;;;;;2.45;1.50;;;;;;;;;;5001883;28;20060;-84
2023/08/27 01:35:14;;;;;;;2.30;1.40;;;;;;;;;;5004650;28;20124;-87
2023/08/27 01:37:39;;;;;;;2.63;1.60;;;;;;;;;;5005670;28;20018;-86
2023/08/27 01:40:06;;;;;;;2.95;1.48;;;;;;;;;;5001646;28;20080;-86
2023/08/27 01:42:35;;;;;;;2.60;1.50;;;;;;;;;;4999336;28;20042;-82
2023/08/27 01:45:03;;;;;;;2.45;1.40;;;;;;;;;;5002548;28;20493;-85
2023/08/27 01:47:29;;;;;;;2.67;1.50;;;;;;;;;;5008546;28;20056;-86
2023/08/27 01:49:55;;;;;;;2.35;1.55;;;;;;;;;;5002910;28;20489;-84
2023/08/27 01:52:20;;;;;;;3.15;1.52;;;;;;;;;;5007249;28;20072;-86
2023/08/27 01:54:46;;;;;;;2.17;1.50;;;;;;;;;;5011220;28;20112;-87
2023/08/27 01:57:11;;;;;;;2.63;1.40;;;;;;;;;;5015283;28;20491;-87
2023/08/27 01:59:37;;;;;;;2.90;1.38;;;;;;;;;;5010685;28;20022;-85
2023/08/27 02:02:02;;;;;;;2.03;1.15;;;;;;;;;;5006265;28;20061;-87
2023/08/27 02:04:28;;;;;;;2.45;1.40;;;;;;;;;;5014945;28;20113;-87
2023/08/27 02:06:53;;;;;;;1.90;1.23;;;;;;;;;;5009775;28;20033;-87
2023/08/27 02:09:19;;;;;;;2.38;1.20;;;;;;;;;;5010304;28;20026;-84
2023/08/27 02:11:44;;;;;;;3.10;1.20;;;;;;;;;;5009500;28;20029;-87
2023/08/27 02:14:10;;;;;;;2.80;1.38;;;;;;;;;;5013862;28;20121;-87
2023/08/27 02:16:35;;;;;;;1.92;1.30;;;;;;;;;;5012686;28;20033;-83
2023/08/27 02:19:00;;;;;;;3.95;1.30;;;;;;;;;;5009088;28;20025;-86
2023/08/27 02:21:26;;;;;;;2.00;1.42;;;;;;;;;;5012547;28;20037;-86
2023/08/27 02:23:51;;;;;;;1.67;1.20;;;;;;;;;;5011323;28;20382;-86
2023/08/27 02:26:17;;;;;;;2.13;1.27;;;;;;;;;;5002461;28;20034;-86
2023/08/27 02:28:42;;;;;;;2.30;1.25;;;;;;;;;;5007104;28;20026;-85
2023/08/27 02:31:08;;;;;;;1.77;1.10;;;;;;;;;;5014758;28;20630;-86
2023/08/27 02:33:34;;;;;;;2.25;1.40;;;;;;;;;;5008442;28;20041;-76
2023/08/27 02:35:59;;;;;;;2.05;1.10;;;;;;;;;;5000514;28;20033;-75
2023/08/27 02:38:25;;;;;;;2.30;1.20;;;;;;;;;;5005462;28;20488;-74
2023/08/27 02:40:50;;;;;;;2.10;1.20;;;;;;;;;;5008087;28;20029;-75
2023/08/27 02:43:15;;;;;;;2.63;1.27;;;;;;;;;;5002248;28;20493;-77
2023/08/27 02:45:41;;;;;;;3.63;1.30;;;;;;;;;;5000243;28;20112;-75
2023/08/27 02:48:07;;;;;;;1.98;1.15;;;;;;;;;;5003198;28;20371;-74
2023/08/27 02:50:32;;;;;;;4.70;1.52;;;;;;;;;;5009118;28;20163;-74
2023/08/27 02:52:58;;;;;;;5.60;1.55;;;;;;;;;;5004253;28;20101;-77
2023/08/27 02:55:25;;;;;;;3.03;1.20;;;;;;;;;;5005516;28;20111;-75
2023/08/27 02:57:50;;;;;;;3.05;1.27;;;;;;;;;;5009166;28;20600;-75
2023/08/27 03:00:16;;;;;;;2.70;1.40;;;;;;;;;;5006821;28;20113;-75
2023/08/27 03:02:41;;;;;;;4.78;1.23;;;;;;;;;;5008560;28;20394;-75
2023/08/27 03:05:07;;;;;;;2.80;1.65;;;;;;;;;;5008035;28;20026;-74
2023/08/27 03:07:32;;;;;;;2.25;1.30;;;;;;;;;;5006705;28;20121;-75
2023/08/27 03:09:58;;;;;;;2.60;1.73;;;;;;;;;;5010736;28;20101;-76
2023/08/27 03:12:23;;;;;;;1.52;1.10;;;;;;;;;;5010042;28;20026;-75
2023/08/27 03:14:48;;;;;;;2.65;1.48;;;;;;;;;;5008044;28;20769;-74
2023/08/27 03:17:14;;;;;;;3.03;1.50;;;;;;;;;;5006512;28;20033;-74
2023/08/27 03:19:39;;;;;;;2.63;1.40;;;;;;;;;;5007114;28;20022;-74
2023/08/27 03:22:05;;;;;;;5.18;1.60;;;;;;;;;;5002712;28;20092;-75
2023/08/27 03:24:30;;;;;;;1.75;1.30;;;;;;;;;;5013800;28;20071;-74
2023/08/27 03:26:56;;;;;;;3.83;1.20;;;;;;;;;;5008556;28;20037;-75
2023/08/27 03:29:21;;;;;;;2.05;1.30;;;;;;;;;;5006051;28;20470;-75
2023/08/27 03:31:47;;;;;;;2.80;1.90;;;;;;;;;;5008529;28;20099;-75
2023/08/27 03:34:13;;;;;;;4.00;1.50;;;;;;;;;;5013821;28;20366;-75
2023/08/27 03:36:40;;;;;;;3.35;1.60;;;;;;;;;;5004517;28;20116;-74
2023/08/27 03:39:05;;;;;;;2.65;1.40;;;;;;;;;;5019302;28;20068;-75
2023/08/27 03:41:31;;;;;;;3.20;1.52;;;;;;;;;;5002243;28;20038;-75
2023/08/27 03:43:56;;;;;;;4.68;1.20;;;;;;;;;;4999245;28;20045;-77
2023/08/27 03:46:22;;;;;;;2.55;1.40;;;;;;;;;;4998744;28;20042;-75
2023/08/27 03:48:47;;;;;;;3.28;1.50;;;;;;;;;;4998760;28;20022;-75
2023/08/27 03:51:12;;;;;;;3.10;1.60;;;;;;;;;;5003089;28;20030;-74
2023/08/27 03:53:38;;;;;;;4.97;1.73;;;;;;;;;;5002540;28;20030;-75
2023/08/27 03:56:04;;;;;;;2.65;1.65;;;;;;;;;;5000052;28;20129;-77
2023/08/27 03:58:29;;;;;;;3.55;1.48;;;;;;;;;;4999719;28;20022;-76
2023/08/27 04:00:55;;;;;;;2.63;1.45;;;;;;;;;;5004314;28;20034;-77
2023/08/27 04:03:20;;;;;;;3.38;1.40;;;;;;;;;;5003755;28;20036;-75
2023/08/27 04:05:49;;;;;;;2.30;1.40;;;;;;;;;;5004849;28;20042;-76
2023/08/27 04:08:18;;;;;;;2.05;1.30;;;;;;;;;;5001320;28;20032;-78
2023/08/27 04:11:02;;;;;;;2.25;1.30;;;;;;;;;;5003995;28;20026;-76
2023/08/27 04:13:28;;;;;;;3.33;1.50;;;;;;;;;;5002663;28;20029;-77
2023/08/27 04:16:01;;;;;;;2.33;1.30;;;;;;;;;;5006946;28;20084;-78
2023/08/27 04:18:27;;;;;;;4.13;1.58;;;;;;;;;;5003768;28;20481;-76
2023/08/27 04:20:53;;;;;;;2.75;1.30;;;;;;;;;;5006878;28;20040;-76
2023/08/27 04:23:18;;;;;;;2.22;1.40;;;;;;;;;;5003705;28;20044;-85
2023/08/27 04:25:44;;;;;;;2.03;1.10;;;;;;;;;;5003717;28;20102;-87
2023/08/27 04:28:09;;;;;;;3.80;1.33;;;;;;;;;;5006013;28;20030;-87
2023/08/27 04:30:35;;;;;;;2.15;1.20;;;;;;;;;;5004582;28;20462;-87
2023/08/27 04:33:01;;;;;;;3.72;1.20;;;;;;;;;;5004636;28;20034;-80
2023/08/27 04:35:26;;;;;;;1.58;1.00;;;;;;;;;;5001968;28;20432;-86
2023/08/27 04:37:51;;;;;;;2.40;1.13;;;;;;;;;;5006957;28;20033;-82
2023/08/27 04:40:17;;;;;;;2.35;1.27;;;;;;;;;;5000158;28;20392;-82
2023/08/27 04:42:42;;;;;;;2.63;1.20;;;;;;;;;;5002004;28;20121;-81
2023/08/27 04:45:09;;;;;;;2.13;1.23;;;;;;;;;;5000022;28;20500;-80
2023/08/27 04:47:34;;;;;;;1.60;1.00;;;;;;;;;;5002804;28;20037;-82
2023/08/27 04:50:00;;;;;;;2.17;1.10;;;;;;;;;;5000408;28;20486;-81
2023/08/27 04:52:25;;;;;;;2.13;1.00;;;;;;;;;;5003235;28;20026;-77
2023/08/27 04:54:51;;;;;;;2.17;1.17;;;;;;;;;;4998287;28;20029;-78
2023/08/27 04:57:16;;;;;;;2.17;1.08;;;;;;;;;;5004385;28;20037;-77
2023/08/27 04:59:41;;;;;;;2.10;1.17;;;;;;;;;;5004515;28;20401;-76
2023/08/27 05:02:07;;;;;;;2.22;1.02;;;;;;;;;;5002781;28;20037;-76
2023/08/27 05:04:32;;;;;;;2.10;1.10;;;;;;;;;;5005644;28;20048;-78
2023/08/27 05:06:58;;;;;;;2.30;1.10;;;;;;;;;;5003332;28;20405;-77
2023/08/27 05:09:25;;;;;;;2.80;1.00;;;;;;;;;;5009922;28;20038;-77
2023/08/27 05:11:50;;;;;;;2.08;1.20;;;;;;;;;;5007626;28;20036;-77
2023/08/27 05:14:16;;;;;;;1.50;1.05;;;;;;;;;;5006681;28;20038;-77
2023/08/27 05:16:41;;;;;;;2.35;1.30;;;;;;;;;;5004176;28;20021;-78
2023/08/27 05:19:06;;;;;;;2.67;1.20;;;;;;;;;;5004629;28;20018;-78
2023/08/27 05:21:32;;;;;;;2.20;1.17;;;;;;;;;;5000814;28;20049;-76
2023/08/27 05:23:57;;;;;;;2.33;1.05;;;;;;;;;;5005095;28;20030;-77
2023/08/27 05:26:22;;;;;;;5.88;1.40;;;;;;;;;;5000854;28;20029;-76
2023/08/27 05:28:48;;;;;;;2.47;1.25;;;;;;;;;;5004345;28;20080;-76
2023/08/27 05:31:13;;;;;;;1.45;1.05;;;;;;;;;;5006532;28;20037;-76
2023/08/27 05:33:38;;;;;;;3.65;1.50;;;;;;;;;;5003502;28;20080;-75
2023/08/27 05:36:04;;;;;;;1.92;1.13;;;;;;;;;;5004761;28;20026;-75
2023/08/27 05:38:29;;;;;;;2.60;1.20;;;;;;;;;;5007070;28;21458;-76
2023/08/27 05:40:55;;;;;;;2.35;1.30;;;;;;;;;;5002679;28;20375;-76
2023/08/27 05:43:20;;;;;;;4.40;1.35;;;;;;;;;;5003993;28;20397;-76
2023/08/27 05:45:45;;;;;;;2.00;1.15;;;;;;;;;;5004188;28;20030;-75
2023/08/27 05:48:11;;;;;;;1.42;0.90;;;;;;;;;;5002755;28;20501;-76
2023/08/27 05:50:36;;;;;;;3.13;1.10;;;;;;;;;;5001159;28;20105;-77
2023/08/27 05:53:03;;;;;;;2.75;1.40;;;;;;;;;;5012688;28;20034;-77
2023/08/27 05:55:29;;;;;;;2.40;1.15;;;;;;;;;;5005784;28;20022;-76
2023/08/27 05:57:54;;;;;;;1.98;1.10;;;;;;;;;;5003464;28;20433;-77
2023/08/27 06:00:20;;;;;;;2.38;1.20;;;;;;;;;;5004778;28;20029;-76
2023/08/27 06:02:45;;;;;;;2.28;1.20;;;;;;;;;;5005364;28;20034;-77
2023/08/27 06:05:11;;;;;;;3.20;1.10;;;;;;;;;;5004700;28;20029;-77
2023/08/27 06:07:37;;;;;;;2.85;1.25;;;;;;;;;;5006577;28;20028;-76
2023/08/27 06:10:02;;;;;;;2.38;1.30;;;;;;;;;;5004958;28;20658;-75
2023/08/27 06:12:28;;;;;;;1.63;1.15;;;;;;;;;;5003431;28;20021;-76
2023/08/27 06:14:53;;;;;;;2.60;1.10;;;;;;;;;;4998096;28;20048;-76
2023/08/27 06:17:19;;;;;;;3.72;1.50;;;;;;;;;;4999577;28;20033;-76
2023/08/27 06:19:44;;;;;;;2.20;1.40;;;;;;;;;;5005349;28;20026;-75
2023/08/27 06:22:09;;;;;;;3.85;1.40;;;;;;;;;;4998849;28;21296;-78
2023/08/27 06:24:35;;;;;;;2.53;1.60;;;;;;;;;;5001357;28;20544;-75
2023/08/27 06:27:00;;;;;;;4.35;1.20;;;;;;;;;;5000100;28;20037;-77
2023/08/27 06:29:25;;;;;;;3.03;1.50;;;;;;;;;;5000167;28;20749;-76
2023/08/27 06:31:51;;;;;;;3.78;1.45;;;;;;;;;;5002342;28;20034;-77
2023/08/27 06:34:16;;;;;;;3.95;1.60;;;;;;;;;;5002246;28;20034;-76
2023/08/27 06:36:42;;;;;;;3.25;1.65;;;;;;;;;;5001895;28;20033;-76
2023/08/27 06:39:08;;;;;;;3.78;1.40;;;;;;;;;;5004650;28;20470;-77
2023/08/27 06:41:33;;;;;;;4.43;1.77;;;;;;;;;;4998745;28;20026;-77
2023/08/27 06:43:59;;;;;;;5.05;1.80;;;;;;;;;;4993130;28;20040;-76
2023/08/27 06:46:24;;;;;;;3.40;1.60;;;;;;;;;;4998644;28;20079;-77
2023/08/27 06:48:49;;;;;;;3.05;1.58;;;;;;;;;;4999785;28;20030;-78
2023/08/27 06:51:15;;;;;;;2.97;1.65;;;;;;;;;;5002217;28;20209;-77
2023/08/27 06:53:40;;;;;;;4.32;1.70;;;;;;;;;;4997985;28;20034;-77
2023/08/27 06:56:05;;;;;;;3.33;1.77;;;;;;;;;;4999109;28;20035;-76
2023/08/27 06:58:31;;;;;;;4.03;1.63;;;;;;;;;;5006176;28;20056;-77
2023/08/27 07:00:56;;;;;;;3.42;1.77;;;;;;;;;;5009991;28;20037;-77
2023/08/27 07:03:22;;;;;;;3.72;1.60;;;;;;;;;;5005783;28;20037;-77
2023/08/27 07:05:49;;;;;;;3.53;1.80;;;;;;;;;;5011881;28;20096;-78
2023/08/27 07:08:14;;;;;;;3.33;1.98;;;;;;;;;;5003500;28;20057;-76
2023/08/27 07:10:40;;;;;;;3.33;2.20;;;;;;;;;;5007842;28;20022;-77
2023/08/27 07:13:05;;;;;;;4.25;2.20;;;;;;;;;;5001604;28;20026;-81
2023/08/27 07:15:30;;;;;;;4.00;2.13;;;;;;;;;;5006010;28;20041;-81
2023/08/27 07:17:56;;;;;;;5.18;2.40;;;;;;;;;;5007181;28;20048;-82
2023/08/27 07:20:23;;;;;;;2.67;1.88;;;;;;;;;;5006354;28;20037;-81
2023/08/27 07:22:48;;;;;;;6.47;2.90;;;;;;;;;;5006915;28;20048;-80
2023/08/27 07:25:14;;;;;;;4.40;2.50;;;;;;;;;;5003679;28;20108;-81
2023/08/27 07:27:39;;;;;;;5.43;2.92;;;;;;;;;;5009065;28;20026;-80
2023/08/27 07:30:05;;;;;;;6.00;2.70;;;;;;;;;;5010475;28;20037;-81
2023/08/27 07:32:31;;;;;;;4.32;2.67;;;;;;;;;;5016130;28;20474;-81
2023/08/27 07:34:57;;;;;;;6.82;3.20;;;;;;;;;;5012072;28;20120;-82
2023/08/27 07:37:22;;;;;;;5.72;3.13;;;;;;;;;;5001605;28;20113;-81
2023/08/27 07:39:48;;;;;;;5.55;3.55;;;;;;;;;;5006098;28;20552;-78
2023/08/27 07:42:13;;;;;;;5.30;3.55;;;;;;;;;;5009144;28;20045;-81
2023/08/27 07:44:38;;;;;;;7.28;3.63;;;;;;;;;;5011487;28;20087;-83
2023/08/27 07:47:04;;;;;;;7.88;3.72;;;;;;;;;;5014040;28;20033;-81
2023/08/27 07:49:29;;;;;;;5.90;3.60;;;;;;;;;;4998717;28;20509;-81
2023/08/27 07:51:54;;;;;;;6.10;3.88;;;;;;;;;;5005417;28;20079;-78
2023/08/27 07:54:20;;;;;;;6.65;4.30;;;;;;;;;;5008341;28;20029;-82
2023/08/27 07:56:45;;;;;;;6.65;3.55;;;;;;;;;;5001586;28;20029;-79
2023/08/27 07:59:11;;;;;;;6.38;4.30;;;;;;;;;;5007436;28;20494;-87
2023/08/27 08:01:36;;;;;;;7.50;4.80;;;;;;;;;;4997359;28;20038;-86
2023/08/27 08:04:03;;;;;;;6.40;5.07;;;;;;;;;;5012724;28;20064;-87
2023/08/27 08:06:28;;;;;;;6.07;4.30;;;;;;;;;;5007560;28;20072;-86
2023/08/27 08:08:54;;;;;;;7.20;5.18;;;;;;;;;;5009330;28;20053;-87
2023/08/27 08:11:19;;;;;;;7.00;5.20;;;;;;;;;;5010943;28;20030;-87
2023/08/27 08:13:46;;;;;;;8.35;5.30;;;;;;;;;;5004403;28;20473;-87
2023/08/27 08:16:11;;;;;;;9.50;5.60;;;;;;;;;;5013141;28;20030;-86
2023/08/27 08:18:36;;;;;;;6.65;5.47;;;;;;;;;;5011702;28;20045;-85
2023/08/27 08:21:02;;;;;;;7.93;5.65;;;;;;;;;;5007800;28;20025;-80
2023/08/27 08:23:28;;;;;;;6.85;5.38;;;;;;;;;;5007470;28;20052;-79
2023/08/27 08:25:53;;;;;;;6.90;5.40;;;;;;;;;;5008254;28;20038;-79
2023/08/27 08:28:19;;;;;;;9.20;5.38;;;;;;;;;;5005651;28;20025;-79
2023/08/27 08:30:47;;;;;;;7.30;5.22;;;;;;;;;;5009203;28;20386;-79
2023/08/27 08:33:14;;;;;;;6.47;4.85;;;;;;;;;;5000530;28;20058;-79
2023/08/27 08:35:39;;;;;;;8.48;4.60;;;;;;;;;;5005816;28;20052;-79
2023/08/27 08:38:04;;;;;;;6.30;4.40;;;;;;;;;;5002437;28;20025;-78
2023/08/27 08:40:35;;;;;;;7.82;4.53;;;;;;;;;;5001381;28;20026;-78
2023/08/27 08:43:00;;;;;;;5.32;4.13;;;;;;;;;;5003609;28;20036;-79
2023/08/27 08:45:29;;;;;;;7.30;4.10;;;;;;;;;;5018898;28;20893;-78
2023/08/27 08:47:56;;;;;;;5.82;4.10;;;;;;;;;;5003074;28;20040;-79
2023/08/27 08:50:22;;;;;;;6.00;3.78;;;;;;;;;;4997919;28;20026;-79
2023/08/27 08:52:49;;;;;;;6.32;4.22;;;;;;;;;;4999964;28;20033;-78
2023/08/27 08:55:16;;;;;;;7.32;3.70;;;;;;;;;;4991665;28;20037;-79
2023/08/27 08:57:58;;;;;;;6.07;3.80;;;;;;;;;;4998629;28;20512;-78
2023/08/27 09:00:25;;;;;;;5.40;3.47;;;;;;;;;;4996623;28;20389;-78
2023/08/27 09:02:51;;;;;;;5.53;3.80;;;;;;;;;;5010532;28;20036;-79
2023/08/27 09:05:18;;;;;;;6.20;3.47;;;;;;;;;;4998770;28;20030;-78
2023/08/27 09:07:46;;;;;;;4.72;2.80;;;;;;;;;;4994267;28;20061;-78
2023/08/27 09:10:12;;;;;;;5.57;2.90;;;;;;;;;;4994192;28;20065;-78
2023/08/27 09:12:40;;;;;;;4.63;2.60;;;;;;;;;;4992600;28;20033;-79
2023/08/27 09:15:09;;;;;;;5.03;2.70;;;;;;;;;;4994618;28;20127;-78
2023/08/27 09:17:36;;;;;;;5.63;2.50;;;;;;;;;;4996739;28;20730;-79
2023/08/27 09:20:01;;;;;;;3.40;2.53;;;;;;;;;;4994314;28;20862;-78
2023/08/27 09:22:27;;;;;;;6.25;2.92;;;;;;;;;;5001166;28;20099;-78
2023/08/27 09:24:52;;;;;;;4.80;2.58;;;;;;;;;;4997814;28;20066;-78
2023/08/27 09:27:18;;;;;;;4.50;2.33;;;;;;;;;;4998517;28;20088;-78
2023/08/27 09:29:46;;;;;;;3.85;2.15;;;;;;;;;;4995501;28;20076;-78
2023/08/27 09:32:22;;;;;;;6.25;2.00;;;;;;;;;;5002314;28;20060;-78
2023/08/27 09:34:48;;;;;;;3.80;2.10;;;;;;;;;;4996549;28;20790;-78
2023/08/27 09:37:14;;;;;;;4.97;2.10;;;;;;;;;;4994753;28;20072;-78
2023/08/27 09:39:42;;;;;;;4.72;2.58;;;;;;;;;;4991522;28;20481;-78
2023/08/27 09:42:11;;;;;;;3.10;1.90;;;;;;;;;;4996335;28;20044;-78
2023/08/27 09:44:36;;;;;;;3.33;2.10;;;;;;;;;;5001161;28;20494;-78
2023/08/27 09:47:06;;;;;;;3.95;1.85;;;;;;;;;;4993056;28;20140;-78
2023/08/27 09:49:31;;;;;;;2.70;1.77;;;;;;;;;;4999660;28;20030;-78
2023/08/27 09:51:58;;;;;;;3.17;1.60;;;;;;;;;;5001162;28;20034;-78
2023/08/27 09:54:29;;;;;;;2.55;1.48;;;;;;;;;;4995065;28;20049;-79
2023/08/27 09:56:59;;;;;;;3.65;1.67;;;;;;;;;;4996378;28;20034;-78
2023/08/27 09:59:25;;;;;;;4.63;1.73;;;;;;;;;;4996705;28;20156;-78
2023/08/27 10:01:51;;;;;;;6.05;1.98;;;;;;;;;;4994712;28;20642;-78
2023/08/27 10:04:18;;;;;;;4.85;1.52;;;;;;;;;;4994630;28;20033;-79
2023/08/27 10:06:43;;;;;;;3.90;1.40;;;;;;;;;;4995036;28;20037;-79
2023/08/27 10:09:09;;;;;;;4.03;1.23;;;;;;;;;;4997531;28;20032;-78
2023/08/27 10:11:36;;;;;;;4.40;1.20;;;;;;;;;;4998197;28;20033;-78
2023/08/27 10:14:03;;;;;;;3.03;1.20;;;;;;;;;;4998730;28;20030;-78
2023/08/27 10:16:34;;;;;;;3.45;1.40;;;;;;;;;;4997095;28;20040;-78
2023/08/27 10:19:01;;;;;;;3.53;1.30;;;;;;;;;;4992987;28;20565;-78
2023/08/27 10:21:27;;;;;;;4.10;1.30;;;;;;;;;;4999327;28;20030;-78
2023/08/27 10:23:53;;;;;;;3.40;1.40;;;;;;;;;;4990183;28;20034;-78
2023/08/27 10:26:18;;;;;;;3.85;1.33;;;;;;;;;;4997990;28;20041;-78
2023/08/27 10:28:44;;;;;;;2.60;1.42;;;;;;;;;;5000843;28;20029;-78
2023/08/27 10:31:11;;;;;;;2.47;1.30;;;;;;;;;;4994627;28;20037;-78
2023/08/27 10:33:36;;;;;;;3.22;1.48;;;;;;;;;;4997019;28;20499;-78
2023/08/27 10:36:05;;;;;;;3.47;1.25;;;;;;;;;;4998060;28;20033;-78
2023/08/27 10:38:34;;;;;;;4.93;1.33;;;;;;;;;;5000454;28;20498;-78
2023/08/27 10:41:00;;;;;;;4.50;1.30;;;;;;;;;;4994708;28;20034;-78
2023/08/27 10:43:35;;;;;;;2.53;1.30;;;;;;;;;;4996815;28;20521;-78
2023/08/27 10:46:15;;;;;;;1.83;1.10;;;;;;;;;;5000657;28;20030;-79
2023/08/27 10:48:47;;;;;;;5.15;1.20;;;;;;;;;;4996950;28;20350;-78
2023/08/27 10:51:14;;;;;;;2.38;1.30;;;;;;;;;;5003112;28;20030;-79
2023/08/27 10:53:48;;;;;;;4.90;1.52;;;;;;;;;;4995654;28;20029;-78
2023/08/27 10:56:28;;;;;;;3.97;1.38;;;;;;;;;;4998049;28;20038;-78
2023/08/27 10:59:02;;;;;;;3.15;1.30;;;;;;;;;;5002938;28;20026;-78
2023/08/27 11:01:28;;;;;;;1.13;0.80;;;;;;;;;;5000282;28;20057;-78
2023/08/27 11:04:01;;;;;;;3.83;0.80;;;;;;;;;;5003221;28;20100;-76
2023/08/27 11:06:41;;;;;;;1.00;0.80;;;;;;;;;;5021111;28;20045;-76
2023/08/27 11:09:29;;;;;;;3.17;0.90;;;;;;;;;;5000272;28;20021;-77
2023/08/27 11:11:59;;;;;;;5.25;0.98;;;;;;;;;;5002573;28;20481;-77
2023/08/27 11:14:25;;;;;;;5.68;1.10;;;;;;;;;;4991100;28;20037;-78
2023/08/27 11:16:58;;;;;;;3.33;0.93;;;;;;;;;;4995362;28;20060;-76
2023/08/27 11:19:45;;;;;;;3.97;0.70;;;;;;;;;;4999582;28;20033;-77
2023/08/27 11:22:14;;;;;;;2.65;0.52;;;;;;;;;;5001034;28;20044;-78
2023/08/27 11:24:47;;;;;;;3.33;0.70;;;;;;;;;;5002818;28;20022;-76
2023/08/27 11:27:15;;;;;;;1.95;0.50;;;;;;;;;;4999411;28;20033;-79
2023/08/27 11:29:42;;;;;;;2.20;0.60;;;;;;;;;;5000863;28;20117;-79
2023/08/27 11:32:09;;;;;;;1.48;0.75;;;;;;;;;;5002716;28;20424;-79
2023/08/27 11:34:36;;;;;;;1.52;0.68;;;;;;;;;;4997360;28;20025;-79
2023/08/27 11:37:02;;;;;;;2.25;0.70;;;;;;;;;;5019027;28;20036;-79
2023/08/27 11:39:28;;;;;;;1.08;0.75;;;;;;;;;;4996709;28;20072;-79
2023/08/27 11:41:54;;;;;;;2.55;0.88;;;;;;;;;;4999418;28;20124;-79
2023/08/27 11:44:19;;;;;;;1.65;0.90;;;;;;;;;;5004000;28;20044;-80
2023/08/27 11:46:46;;;;;;;2.30;0.80;;;;;;;;;;5004491;28;20033;-79
2023/08/27 11:49:13;;;;;;;3.80;1.30;;;;;;;;;;4998532;28;20811;-79
2023/08/27 11:51:41;;;;;;;2.70;1.00;;;;;;;;;;5003061;28;20389;-80
2023/08/27 11:54:07;;;;;;;2.40;1.17;;;;;;;;;;4998784;28;20041;-79
2023/08/27 11:56:36;;;;;;;1.27;0.93;;;;;;;;;;4996908;28;20030;-79
2023/08/27 11:59:03;;;;;;;1.80;0.80;;;;;;;;;;5010678;28;20030;-80
2023/08/27 12:01:29;;;;;;;1.58;0.77;;;;;;;;;;4994919;28;20329;-80
2023/08/27 12:03:55;;;;;;;1.25;0.82;;;;;;;;;;5001745;28;20042;-81
2023/08/27 12:06:26;;;;;;;1.42;0.98;;;;;;;;;;5006706;28;20116;-83
2023/08/27 12:08:53;;;;;;;1.30;0.80;;;;;;;;;;5008352;28;20074;-83
2023/08/27 12:11:23;;;;;;;2.22;0.70;;;;;;;;;;5004269;28;20532;-83
2023/08/27 12:13:53;;;;;;;1.65;0.80;;;;;;;;;;5009640;28;20058;-82
2023/08/27 12:16:27;;;;;;;1.25;0.77;;;;;;;;;;5004850;28;20425;-82
2023/08/27 12:19:03;;;;;;;1.98;0.82;;;;;;;;;;5011159;28;20460;-84
2023/08/27 12:21:32;;;;;;;1.30;0.75;;;;;;;;;;5002366;28;20128;-84
2023/08/27 12:23:57;;;;;;;0.88;0.60;;;;;;;;;;5001685;28;20409;-83
2023/08/27 12:26:23;;;;;;;1.02;0.60;;;;;;;;;;4994954;28;20074;-83
2023/08/27 12:28:52;;;;;;;2.42;0.60;;;;;;;;;;4999766;28;20081;-83
2023/08/27 12:31:23;;;;;;;1.70;0.77;;;;;;;;;;5004570;28;20481;-84
2023/08/27 12:33:48;;;;;;;0.90;0.55;;;;;;;;;;4991819;28;20071;-83
2023/08/27 12:36:14;;;;;;;1.30;0.60;;;;;;;;;;5010064;28;20029;-83
2023/08/27 12:38:39;;;;;;;0.57;0.50;;;;;;;;;;5011561;28;20021;-83
2023/08/27 12:41:04;;;;;;;1.85;0.98;;;;;;;;;;5004971;28;20049;-80
2023/08/27 12:43:30;;;;;;;0.80;0.50;;;;;;;;;;5006041;28;20033;-83
2023/08/27 12:45:55;;;;;;;1.27;0.60;;;;;;;;;;5005188;28;20507;-83
2023/08/27 12:48:20;;;;;;;1.00;0.50;;;;;;;;;;5007208;28;20092;-83
2023/08/27 12:50:46;;;;;;;0.75;0.52;;;;;;;;;;5004910;28;20037;-82
2023/08/27 12:53:11;;;;;;;0.73;0.63;;;;;;;;;;5006789;28;20034;-83
2023/08/27 12:55:36;;;;;;;1.33;0.70;;;;;;;;;;5004788;28;20511;-82
2023/08/27 12:58:02;;;;;;;1.13;0.68;;;;;;;;;;5002347;28;20022;-83
2023/08/27 13:00:27;;;;;;;5.85;1.30;;;;;;;;;;5001739;28;20042;-83
2023/08/27 13:02:53;;;;;;;0.80;0.60;;;;;;;;;;5003341;28;20041;-82
2023/08/27 13:05:18;;;;;;;2.03;0.85;;;;;;;;;;5009408;28;20029;-83
2023/08/27 13:07:43;;;;;;;0.90;0.70;;;;;;;;;;5003597;28;20041;-81
2023/08/27 13:10:09;;;;;;;1.27;0.73;;;;;;;;;;5015023;28;20027;-83
2023/08/27 13:12:35;;;;;;;1.23;0.73;;;;;;;;;;5004001;28;20025;-83
2023/08/27 13:15:01;;;;;;;2.83;0.70;;;;;;;;;;5010868;28;20033;-82
2023/08/27 13:17:26;;;;;;;1.30;0.90;;;;;;;;;;5009074;28;20477;-82
2023/08/27 13:19:51;;;;;;;1.42;0.90;;;;;;;;;;5006097;28;20520;-83
2023/08/27 13:22:17;;;;;;;1.17;0.88;;;;;;;;;;4998191;28;20034;-80
2023/08/27 13:24:43;;;;;;;1.40;0.80;;;;;;;;;;5004785;28;20105;-83
2023/08/27 13:27:08;;;;;;;1.48;0.93;;;;;;;;;;5002921;28;20026;-82
2023/08/27 13:29:34;;;;;;;2.15;0.90;;;;;;;;;;5002589;28;20034;-82
2023/08/27 13:31:59;;;;;;;1.77;1.00;;;;;;;;;;5011009;28;20393;-84
2023/08/27 13:34:25;;;;;;;2.35;0.95;;;;;;;;;;5009406;28;20621;-82
2023/08/27 13:36:50;;;;;;;1.50;1.00;;;;;;;;;;5014808;28;20022;-83
2023/08/27 13:39:16;;;;;;;1.70;0.90;;;;;;;;;;5006091;28;20512;-82
2023/08/27 13:41:41;;;;;;;1.88;1.38;;;;;;;;;;5014492;28;20108;-82
2023/08/27 13:44:07;;;;;;;1.52;1.17;;;;;;;;;;5012158;28;20113;-83
2023/08/27 13:46:33;;;;;;;1.95;1.23;;;;;;;;;;5011252;28;20100;-83
2023/08/27 13:48:58;;;;;;;1.92;1.25;;;;;;;;;;5009431;28;20155;-84
2023/08/27 13:51:23;;;;;;;1.60;1.10;;;;;;;;;;5001907;28;20197;-83
2023/08/27 13:53:49;;;;;;;1.25;1.00;;;;;;;;;;5001202;28;20036;-83
2023/08/27 13:56:14;;;;;;;2.15;1.42;;;;;;;;;;5007188;28;20037;-83
2023/08/27 13:58:41;;;;;;;2.03;1.40;;;;;;;;;;5007144;28;20026;-80
2023/08/27 14:01:07;;;;;;;3.25;1.50;;;;;;;;;;5008918;28;20030;-82
2023/08/27 14:03:33;;;;;;;3.67;1.60;;;;;;;;;;5001696;28;20038;-82
2023/08/27 14:05:59;;;;;;;2.20;1.40;;;;;;;;;;5000221;28;20060;-82
2023/08/27 14:08:25;;;;;;;2.47;1.40;;;;;;;;;;5002710;28;20064;-83
2023/08/27 14:10:51;;;;;;;2.28;1.50;;;;;;;;;;5005462;28;20108;-82
2023/08/27 14:13:17;;;;;;;3.22;1.50;;;;;;;;;;5003782;28;20516;-82
2023/08/27 14:15:42;;;;;;;2.38;1.60;;;;;;;;;;5005153;28;20032;-82
2023/08/27 14:18:07;;;;;;;2.25;1.70;;;;;;;;;;5009359;28;20022;-82
2023/08/27 14:20:33;;;;;;;2.20;1.80;;;;;;;;;;5000999;28;20033;-80
2023/08/27 14:22:58;;;;;;;2.15;1.75;;;;;;;;;;5009675;28;20036;-79
2023/08/27 14:25:23;;;;;;;3.35;1.52;;;;;;;;;;5002360;28;20044;-79
2023/08/27 14:27:49;;;;;;;2.17;1.60;;;;;;;;;;5007205;28;20029;-79
2023/08/27 14:30:14;;;;;;;3.08;1.65;;;;;;;;;;5002964;28;20029;-79
2023/08/27 14:32:40;;;;;;;1.95;1.25;;;;;;;;;;5004311;28;20029;-79
2023/08/27 14:35:06;;;;;;;1.55;1.10;;;;;;;;;;5001167;28;20091;-79
2023/08/27 14:37:32;;;;;;;1.70;1.30;;;;;;;;;;5003638;28;20057;-78
2023/08/27 14:39:58;;;;;;;2.58;1.20;;;;;;;;;;5009202;28;20080;-78